sensor_id;sensor_type;location;lat;lon;timestamp;P1;durP1;ratioP1;P2;durP2;ratioP2
18740;SDS011;9499;52.472;13.448;2023-09-18T00:01:28;2.97;;;2.67;;
18740;SDS011;9499;52.472;13.448;2023-09-18T00:03:54;4.33;;;3.83;;
18740;SDS011;9499;52.472;13.448;2023-09-18T00:06:21;3.67;;;3.00;;
18740;SDS011;9499;52.472;13.448;2023-09-18T00:08:48;4.00;;;3.67;;
18740;SDS011;9499;52.472;13.448;2023-09-18T00:11:16;3.47;;;3.10;;
18740;SDS011;9499;52.472;13.448;2023-09-18T00:13:43;4.83;;;3.20;;
18740;SDS011;9499;52.472;13.448;2023-09-18T00:16:10;4.90;;;4.10;;
18740;SDS011;9499;52.472;13.448;2023-09-18T00:18:37;3.27;;;2.97;;
18740;SDS011;9499;52.472;13.448;2023-09-18T00:21:04;4.77;;;3.63;;
18740;SDS011;9499;52.472;13.448;2023-09-18T00:23:31;3.60;;;3.03;;
18740;SDS011;9499;52.472;13.448;2023-09-18T00:26:00;4.37;;;3.97;;
18740;SDS011;9499;52.472;13.448;2023-09-18T00:28:27;4.53;;;3.87;;
18740;SDS011;9499;52.472;13.448;2023-09-18T00:30:54;4.60;;;3.60;;
18740;SDS011;9499;52.472;13.448;2023-09-18T00:33:21;4.10;;;3.70;;
18740;SDS011;9499;52.472;13.448;2023-09-18T00:35:47;3.60;;;2.00;;
18740;SDS011;9499;52.472;13.448;2023-09-18T00:38:15;4.60;;;3.60;;
18740;SDS011;9499;52.472;13.448;2023-09-18T00:40:41;3.00;;;2.70;;
18740;SDS011;9499;52.472;13.448;2023-09-18T00:43:08;4.97;;;3.80;;
18740;SDS011;9499;52.472;13.448;2023-09-18T00:45:36;3.00;;;2.67;;
18740;SDS011;9499;52.472;13.448;2023-09-18T00:48:07;4.83;;;2.93;;
18740;SDS011;9499;52.472;13.448;2023-09-18T00:50:34;4.77;;;4.37;;
18740;SDS011;9499;52.472;13.448;2023-09-18T00:53:01;4.00;;;3.20;;
18740;SDS011;9499;52.472;13.448;2023-09-18T00:55:28;4.27;;;3.27;;
18740;SDS011;9499;52.472;13.448;2023-09-18T00:57:57;5.17;;;4.13;;
18740;SDS011;9499;52.472;13.448;2023-09-18T01:00:24;3.93;;;3.23;;
18740;SDS011;9499;52.472;13.448;2023-09-18T01:02:50;4.23;;;3.20;;
18740;SDS011;9499;52.472;13.448;2023-09-18T01:05:18;4.57;;;2.57;;
18740;SDS011;9499;52.472;13.448;2023-09-18T01:07:45;3.97;;;3.43;;
18740;SDS011;9499;52.472;13.448;2023-09-18T01:10:12;5.23;;;4.23;;
18740;SDS011;9499;52.472;13.448;2023-09-18T01:12:42;3.10;;;2.77;;
18740;SDS011;9499;52.472;13.448;2023-09-18T01:15:14;4.30;;;3.23;;
18740;SDS011;9499;52.472;13.448;2023-09-18T01:17:44;5.50;;;3.70;;
18740;SDS011;9499;52.472;13.448;2023-09-18T01:20:12;3.33;;;3.00;;
18740;SDS011;9499;52.472;13.448;2023-09-18T01:22:40;3.50;;;2.80;;
18740;SDS011;9499;52.472;13.448;2023-09-18T01:25:06;4.33;;;3.07;;
18740;SDS011;9499;52.472;13.448;2023-09-18T01:27:33;3.80;;;2.80;;
18740;SDS011;9499;52.472;13.448;2023-09-18T01:30:00;3.10;;;2.77;;
18740;SDS011;9499;52.472;13.448;2023-09-18T01:32:27;3.00;;;2.70;;
18740;SDS011;9499;52.472;13.448;2023-09-18T01:34:57;3.17;;;2.47;;
18740;SDS011;9499;52.472;13.448;2023-09-18T01:37:26;4.37;;;2.73;;
18740;SDS011;9499;52.472;13.448;2023-09-18T01:39:56;3.60;;;3.10;;
18740;SDS011;9499;52.472;13.448;2023-09-18T01:42:24;3.03;;;2.33;;
18740;SDS011;9499;52.472;13.448;2023-09-18T01:44:51;3.10;;;2.40;;
18740;SDS011;9499;52.472;13.448;2023-09-18T01:47:18;6.73;;;3.23;;
18740;SDS011;9499;52.472;13.448;2023-09-18T01:49:46;3.53;;;2.47;;
18740;SDS011;9499;52.472;13.448;2023-09-18T01:52:13;3.17;;;2.87;;
18740;SDS011;9499;52.472;13.448;2023-09-18T01:54:39;3.83;;;2.93;;
18740;SDS011;9499;52.472;13.448;2023-09-18T01:57:07;2.83;;;2.10;;
18740;SDS011;9499;52.472;13.448;2023-09-18T01:59:34;3.70;;;3.27;;
18740;SDS011;9499;52.472;13.448;2023-09-18T02:02:01;3.70;;;3.30;;
18740;SDS011;9499;52.472;13.448;2023-09-18T02:04:28;2.63;;;2.40;;
18740;SDS011;9499;52.472;13.448;2023-09-18T02:06:56;3.40;;;3.10;;
18740;SDS011;9499;52.472;13.448;2023-09-18T02:09:23;4.73;;;3.13;;
18740;SDS011;9499;52.472;13.448;2023-09-18T02:11:49;3.00;;;2.70;;
18740;SDS011;9499;52.472;13.448;2023-09-18T02:14:17;3.73;;;2.60;;
18740;SDS011;9499;52.472;13.448;2023-09-18T02:16:43;4.53;;;3.50;;
18740;SDS011;9499;52.472;13.448;2023-09-18T02:19:11;3.23;;;2.63;;
18740;SDS011;9499;52.472;13.448;2023-09-18T02:21:38;3.03;;;2.53;;
18740;SDS011;9499;52.472;13.448;2023-09-18T02:24:05;4.90;;;2.80;;
18740;SDS011;9499;52.472;13.448;2023-09-18T02:26:32;3.13;;;2.60;;
18740;SDS011;9499;52.472;13.448;2023-09-18T02:28:59;3.83;;;2.77;;
18740;SDS011;9499;52.472;13.448;2023-09-18T02:31:28;2.80;;;2.30;;
18740;SDS011;9499;52.472;13.448;2023-09-18T02:33:55;4.40;;;2.90;;
18740;SDS011;9499;52.472;13.448;2023-09-18T02:36:21;3.40;;;3.00;;
18740;SDS011;9499;52.472;13.448;2023-09-18T02:38:48;3.37;;;3.07;;
18740;SDS011;9499;52.472;13.448;2023-09-18T02:41:14;3.47;;;3.10;;
18740;SDS011;9499;52.472;13.448;2023-09-18T02:43:41;3.00;;;2.80;;
18740;SDS011;9499;52.472;13.448;2023-09-18T02:46:07;5.43;;;2.70;;
18740;SDS011;9499;52.472;13.448;2023-09-18T02:48:35;5.00;;;3.60;;
18740;SDS011;9499;52.472;13.448;2023-09-18T02:51:02;2.90;;;2.40;;
18740;SDS011;9499;52.472;13.448;2023-09-18T02:53:28;3.90;;;2.07;;
18740;SDS011;9499;52.472;13.448;2023-09-18T02:55:56;3.40;;;3.10;;
18740;SDS011;9499;52.472;13.448;2023-09-18T02:58:23;3.60;;;2.80;;
18740;SDS011;9499;52.472;13.448;2023-09-18T03:00:51;3.13;;;2.80;;
18740;SDS011;9499;52.472;13.448;2023-09-18T03:03:19;2.87;;;2.37;;
18740;SDS011;9499;52.472;13.448;2023-09-18T03:05:46;3.77;;;3.00;;
18740;SDS011;9499;52.472;13.448;2023-09-18T03:08:13;4.30;;;3.90;;
18740;SDS011;9499;52.472;13.448;2023-09-18T03:10:41;3.03;;;2.77;;
18740;SDS011;9499;52.472;13.448;2023-09-18T03:13:09;6.90;;;2.87;;
18740;SDS011;9499;52.472;13.448;2023-09-18T03:15:36;4.13;;;2.90;;
18740;SDS011;9499;52.472;13.448;2023-09-18T03:18:05;3.27;;;2.53;;
18740;SDS011;9499;52.472;13.448;2023-09-18T03:20:33;3.83;;;3.43;;
18740;SDS011;9499;52.472;13.448;2023-09-18T03:23:01;3.50;;;2.10;;
18740;SDS011;9499;52.472;13.448;2023-09-18T03:25:28;3.80;;;3.00;;
18740;SDS011;9499;52.472;13.448;2023-09-18T03:27:55;3.67;;;3.13;;
18740;SDS011;9499;52.472;13.448;2023-09-18T03:30:23;2.97;;;2.73;;
18740;SDS011;9499;52.472;13.448;2023-09-18T03:32:50;3.13;;;2.30;;
18740;SDS011;9499;52.472;13.448;2023-09-18T03:35:18;4.27;;;3.30;;
18740;SDS011;9499;52.472;13.448;2023-09-18T03:37:45;3.53;;;2.70;;
18740;SDS011;9499;52.472;13.448;2023-09-18T03:40:13;3.50;;;3.20;;
18740;SDS011;9499;52.472;13.448;2023-09-18T03:42:40;4.40;;;3.60;;
18740;SDS011;9499;52.472;13.448;2023-09-18T03:45:07;5.03;;;3.70;;
18740;SDS011;9499;52.472;13.448;2023-09-18T03:47:35;2.60;;;2.40;;
18740;SDS011;9499;52.472;13.448;2023-09-18T03:50:02;3.57;;;3.27;;
18740;SDS011;9499;52.472;13.448;2023-09-18T03:52:29;3.30;;;3.00;;
18740;SDS011;9499;52.472;13.448;2023-09-18T03:54:56;2.87;;;2.43;;
18740;SDS011;9499;52.472;13.448;2023-09-18T03:57:23;4.27;;;3.13;;
18740;SDS011;9499;52.472;13.448;2023-09-18T03:59:50;3.37;;;2.97;;
18740;SDS011;9499;52.472;13.448;2023-09-18T04:02:16;3.10;;;2.33;;
18740;SDS011;9499;52.472;13.448;2023-09-18T04:04:43;4.43;;;2.90;;
18740;SDS011;9499;52.472;13.448;2023-09-18T04:07:10;3.93;;;2.97;;
18740;SDS011;9499;52.472;13.448;2023-09-18T04:09:36;2.93;;;2.67;;
18740;SDS011;9499;52.472;13.448;2023-09-18T04:12:05;3.27;;;2.63;;
18740;SDS011;9499;52.472;13.448;2023-09-18T04:14:33;4.13;;;2.70;;
18740;SDS011;9499;52.472;13.448;2023-09-18T04:16:59;3.00;;;2.17;;
18740;SDS011;9499;52.472;13.448;2023-09-18T04:19:26;4.83;;;3.73;;
18740;SDS011;9499;52.472;13.448;2023-09-18T04:21:53;2.50;;;2.20;;
18740;SDS011;9499;52.472;13.448;2023-09-18T04:24:20;4.00;;;3.70;;
18740;SDS011;9499;52.472;13.448;2023-09-18T04:26:47;3.17;;;2.80;;
18740;SDS011;9499;52.472;13.448;2023-09-18T04:29:15;4.13;;;3.73;;
18740;SDS011;9499;52.472;13.448;2023-09-18T04:31:43;4.77;;;3.43;;
18740;SDS011;9499;52.472;13.448;2023-09-18T04:34:10;5.70;;;2.80;;
18740;SDS011;9499;52.472;13.448;2023-09-18T04:36:37;4.57;;;3.33;;
18740;SDS011;9499;52.472;13.448;2023-09-18T04:39:04;3.53;;;2.80;;
18740;SDS011;9499;52.472;13.448;2023-09-18T04:41:31;3.30;;;2.37;;
18740;SDS011;9499;52.472;13.448;2023-09-18T04:43:57;5.63;;;2.37;;
18740;SDS011;9499;52.472;13.448;2023-09-18T04:46:24;3.53;;;3.23;;
18740;SDS011;9499;52.472;13.448;2023-09-18T04:48:52;3.10;;;2.33;;
18740;SDS011;9499;52.472;13.448;2023-09-18T04:51:18;3.47;;;3.03;;
18740;SDS011;9499;52.472;13.448;2023-09-18T04:53:45;3.57;;;2.70;;
18740;SDS011;9499;52.472;13.448;2023-09-18T04:56:12;4.33;;;3.50;;
18740;SDS011;9499;52.472;13.448;2023-09-18T04:58:38;2.97;;;2.57;;
18740;SDS011;9499;52.472;13.448;2023-09-18T05:01:05;4.13;;;2.63;;
18740;SDS011;9499;52.472;13.448;2023-09-18T05:03:32;3.43;;;2.83;;
18740;SDS011;9499;52.472;13.448;2023-09-18T05:06:01;4.10;;;2.43;;
18740;SDS011;9499;52.472;13.448;2023-09-18T05:08:29;4.30;;;3.17;;
18740;SDS011;9499;52.472;13.448;2023-09-18T05:10:56;4.97;;;3.00;;
18740;SDS011;9499;52.472;13.448;2023-09-18T05:13:23;4.43;;;3.27;;
18740;SDS011;9499;52.472;13.448;2023-09-18T05:15:49;4.17;;;3.17;;
18740;SDS011;9499;52.472;13.448;2023-09-18T05:18:16;9.00;;;2.80;;
18740;SDS011;9499;52.472;13.448;2023-09-18T05:20:43;3.57;;;2.80;;
18740;SDS011;9499;52.472;13.448;2023-09-18T05:23:10;3.20;;;2.70;;
18740;SDS011;9499;52.472;13.448;2023-09-18T05:25:37;3.50;;;2.67;;
18740;SDS011;9499;52.472;13.448;2023-09-18T05:28:06;3.63;;;2.80;;
18740;SDS011;9499;52.472;13.448;2023-09-18T05:30:34;3.00;;;2.70;;
18740;SDS011;9499;52.472;13.448;2023-09-18T05:33:04;3.37;;;2.97;;
18740;SDS011;9499;52.472;13.448;2023-09-18T05:35:32;3.17;;;2.57;;
18740;SDS011;9499;52.472;13.448;2023-09-18T05:37:59;3.30;;;2.83;;
18740;SDS011;9499;52.472;13.448;2023-09-18T05:40:27;3.63;;;3.17;;
18740;SDS011;9499;52.472;13.448;2023-09-18T05:42:54;5.43;;;2.83;;
18740;SDS011;9499;52.472;13.448;2023-09-18T05:45:21;4.13;;;3.13;;
18740;SDS011;9499;52.472;13.448;2023-09-18T05:47:48;2.67;;;2.47;;
18740;SDS011;9499;52.472;13.448;2023-09-18T05:50:15;2.50;;;2.30;;
18740;SDS011;9499;52.472;13.448;2023-09-18T05:52:43;4.33;;;3.07;;
18740;SDS011;9499;52.472;13.448;2023-09-18T05:55:10;4.53;;;2.40;;
18740;SDS011;9499;52.472;13.448;2023-09-18T05:57:38;3.87;;;3.53;;
18740;SDS011;9499;52.472;13.448;2023-09-18T06:00:05;3.63;;;3.13;;
18740;SDS011;9499;52.472;13.448;2023-09-18T06:02:33;4.27;;;3.87;;
18740;SDS011;9499;52.472;13.448;2023-09-18T06:05:00;2.93;;;2.43;;
18740;SDS011;9499;52.472;13.448;2023-09-18T06:07:28;3.27;;;2.97;;
18740;SDS011;9499;52.472;13.448;2023-09-18T06:09:55;3.37;;;2.87;;
18740;SDS011;9499;52.472;13.448;2023-09-18T06:12:22;3.53;;;3.00;;
18740;SDS011;9499;52.472;13.448;2023-09-18T06:14:51;3.70;;;3.40;;
18740;SDS011;9499;52.472;13.448;2023-09-18T06:17:18;2.80;;;2.43;;
18740;SDS011;9499;52.472;13.448;2023-09-18T06:19:44;3.07;;;2.77;;
18740;SDS011;9499;52.472;13.448;2023-09-18T06:22:11;2.83;;;2.63;;
18740;SDS011;9499;52.472;13.448;2023-09-18T06:24:38;2.30;;;1.80;;
18740;SDS011;9499;52.472;13.448;2023-09-18T06:27:05;3.70;;;2.90;;
18740;SDS011;9499;52.472;13.448;2023-09-18T06:29:32;2.80;;;2.00;;
18740;SDS011;9499;52.472;13.448;2023-09-18T06:32:00;3.40;;;2.90;;
18740;SDS011;9499;52.472;13.448;2023-09-18T06:34:27;3.80;;;2.40;;
18740;SDS011;9499;52.472;13.448;2023-09-18T06:36:54;2.67;;;2.30;;
18740;SDS011;9499;52.472;13.448;2023-09-18T06:39:20;4.27;;;2.80;;
18740;SDS011;9499;52.472;13.448;2023-09-18T06:41:48;2.33;;;1.93;;
18740;SDS011;9499;52.472;13.448;2023-09-18T06:44:15;2.50;;;2.30;;
18740;SDS011;9499;52.472;13.448;2023-09-18T06:46:42;2.47;;;2.10;;
18740;SDS011;9499;52.472;13.448;2023-09-18T06:49:09;3.33;;;2.37;;
18740;SDS011;9499;52.472;13.448;2023-09-18T06:51:36;2.80;;;2.57;;
18740;SDS011;9499;52.472;13.448;2023-09-18T06:54:03;3.93;;;2.30;;
18740;SDS011;9499;52.472;13.448;2023-09-18T06:56:29;2.70;;;2.37;;
18740;SDS011;9499;52.472;13.448;2023-09-18T06:58:56;4.90;;;2.90;;
18740;SDS011;9499;52.472;13.448;2023-09-18T07:01:22;3.00;;;2.10;;
18740;SDS011;9499;52.472;13.448;2023-09-18T07:03:51;4.50;;;2.63;;
18740;SDS011;9499;52.472;13.448;2023-09-18T07:06:18;3.93;;;2.30;;
18740;SDS011;9499;52.472;13.448;2023-09-18T07:08:46;2.20;;;1.90;;
18740;SDS011;9499;52.472;13.448;2023-09-18T07:11:14;3.70;;;2.00;;
18740;SDS011;9499;52.472;13.448;2023-09-18T07:13:40;4.83;;;3.07;;
18740;SDS011;9499;52.472;13.448;2023-09-18T07:16:08;2.03;;;1.80;;
18740;SDS011;9499;52.472;13.448;2023-09-18T07:18:35;2.80;;;2.47;;
18740;SDS011;9499;52.472;13.448;2023-09-18T07:21:01;1.80;;;1.20;;
18740;SDS011;9499;52.472;13.448;2023-09-18T07:23:30;2.30;;;1.70;;
18740;SDS011;9499;52.472;13.448;2023-09-18T07:25:57;2.67;;;2.37;;
18740;SDS011;9499;52.472;13.448;2023-09-18T07:28:23;2.20;;;1.97;;
18740;SDS011;9499;52.472;13.448;2023-09-18T07:30:50;3.13;;;1.80;;
18740;SDS011;9499;52.472;13.448;2023-09-18T07:33:16;2.13;;;1.67;;
18740;SDS011;9499;52.472;13.448;2023-09-18T07:35:45;4.67;;;2.07;;
18740;SDS011;9499;52.472;13.448;2023-09-18T07:38:13;2.40;;;1.63;;
18740;SDS011;9499;52.472;13.448;2023-09-18T07:40:41;3.37;;;2.17;;
18740;SDS011;9499;52.472;13.448;2023-09-18T07:43:08;3.07;;;2.77;;
18740;SDS011;9499;52.472;13.448;2023-09-18T07:45:34;6.70;;;2.50;;
18740;SDS011;9499;52.472;13.448;2023-09-18T07:48:04;2.90;;;2.60;;
18740;SDS011;9499;52.472;13.448;2023-09-18T07:50:31;2.70;;;2.20;;
18740;SDS011;9499;52.472;13.448;2023-09-18T07:52:58;2.10;;;1.90;;
18740;SDS011;9499;52.472;13.448;2023-09-18T07:55:24;2.93;;;2.13;;
18740;SDS011;9499;52.472;13.448;2023-09-18T07:57:52;2.63;;;2.07;;
18740;SDS011;9499;52.472;13.448;2023-09-18T08:00:19;3.43;;;1.87;;
18740;SDS011;9499;52.472;13.448;2023-09-18T08:02:47;3.43;;;2.83;;
18740;SDS011;9499;52.472;13.448;2023-09-18T08:05:15;3.23;;;2.60;;
18740;SDS011;9499;52.472;13.448;2023-09-18T08:07:42;2.27;;;1.53;;
18740;SDS011;9499;52.472;13.448;2023-09-18T08:10:09;3.17;;;2.23;;
18740;SDS011;9499;52.472;13.448;2023-09-18T08:12:37;2.30;;;2.10;;
18740;SDS011;9499;52.472;13.448;2023-09-18T08:15:06;4.07;;;2.13;;
18740;SDS011;9499;52.472;13.448;2023-09-18T08:17:33;2.30;;;1.80;;
18740;SDS011;9499;52.472;13.448;2023-09-18T08:20:00;3.00;;;2.10;;
18740;SDS011;9499;52.472;13.448;2023-09-18T08:22:28;2.47;;;2.23;;
18740;SDS011;9499;52.472;13.448;2023-09-18T08:24:55;2.80;;;1.93;;
18740;SDS011;9499;52.472;13.448;2023-09-18T08:27:23;3.40;;;2.20;;
18740;SDS011;9499;52.472;13.448;2023-09-18T08:29:50;2.63;;;2.03;;
18740;SDS011;9499;52.472;13.448;2023-09-18T08:32:18;3.33;;;1.80;;
18740;SDS011;9499;52.472;13.448;2023-09-18T08:34:44;3.27;;;2.33;;
18740;SDS011;9499;52.472;13.448;2023-09-18T08:37:11;3.13;;;1.97;;
18740;SDS011;9499;52.472;13.448;2023-09-18T08:39:38;3.13;;;1.93;;
18740;SDS011;9499;52.472;13.448;2023-09-18T08:42:05;2.37;;;1.70;;
18740;SDS011;9499;52.472;13.448;2023-09-18T08:44:35;2.33;;;1.47;;
18740;SDS011;9499;52.472;13.448;2023-09-18T08:47:05;3.00;;;2.30;;
18740;SDS011;9499;52.472;13.448;2023-09-18T08:49:33;2.50;;;1.40;;
18740;SDS011;9499;52.472;13.448;2023-09-18T08:52:00;3.03;;;2.13;;
18740;SDS011;9499;52.472;13.448;2023-09-18T08:54:27;2.43;;;1.63;;
18740;SDS011;9499;52.472;13.448;2023-09-18T08:56:54;2.80;;;2.20;;
18740;SDS011;9499;52.472;13.448;2023-09-18T08:59:21;2.67;;;1.60;;
18740;SDS011;9499;52.472;13.448;2023-09-18T09:01:49;2.73;;;1.70;;
18740;SDS011;9499;52.472;13.448;2023-09-18T09:04:15;2.43;;;1.93;;
18740;SDS011;9499;52.472;13.448;2023-09-18T09:06:43;2.47;;;1.97;;
18740;SDS011;9499;52.472;13.448;2023-09-18T09:09:10;2.50;;;1.60;;
18740;SDS011;9499;52.472;13.448;2023-09-18T09:11:38;2.10;;;1.70;;
18740;SDS011;9499;52.472;13.448;2023-09-18T09:14:08;2.73;;;1.80;;
18740;SDS011;9499;52.472;13.448;2023-09-18T09:16:41;2.47;;;1.40;;
18740;SDS011;9499;52.472;13.448;2023-09-18T09:19:12;1.93;;;1.33;;
18740;SDS011;9499;52.472;13.448;2023-09-18T09:21:39;2.63;;;1.63;;
18740;SDS011;9499;52.472;13.448;2023-09-18T09:24:08;2.40;;;1.77;;
18740;SDS011;9499;52.472;13.448;2023-09-18T09:26:38;3.70;;;1.67;;
18740;SDS011;9499;52.472;13.448;2023-09-18T09:29:14;3.07;;;1.60;;
18740;SDS011;9499;52.472;13.448;2023-09-18T09:31:43;2.80;;;2.00;;
18740;SDS011;9499;52.472;13.448;2023-09-18T09:34:10;2.10;;;1.40;;
18740;SDS011;9499;52.472;13.448;2023-09-18T09:36:36;3.20;;;2.13;;
18740;SDS011;9499;52.472;13.448;2023-09-18T09:39:18;2.27;;;1.43;;
18740;SDS011;9499;52.472;13.448;2023-09-18T09:41:46;2.27;;;1.43;;
18740;SDS011;9499;52.472;13.448;2023-09-18T09:44:14;1.90;;;1.37;;
18740;SDS011;9499;52.472;13.448;2023-09-18T09:46:44;2.33;;;1.37;;
18740;SDS011;9499;52.472;13.448;2023-09-18T09:49:11;5.17;;;1.63;;
18740;SDS011;9499;52.472;13.448;2023-09-18T09:51:40;1.93;;;1.33;;
18740;SDS011;9499;52.472;13.448;2023-09-18T09:54:08;2.50;;;1.60;;
18740;SDS011;9499;52.472;13.448;2023-09-18T09:56:44;2.60;;;1.90;;
18740;SDS011;9499;52.472;13.448;2023-09-18T09:59:11;2.27;;;1.67;;
18740;SDS011;9499;52.472;13.448;2023-09-18T10:01:39;2.60;;;1.87;;
18740;SDS011;9499;52.472;13.448;2023-09-18T10:04:09;2.10;;;1.30;;
18740;SDS011;9499;52.472;13.448;2023-09-18T10:06:37;2.00;;;1.57;;
18740;SDS011;9499;52.472;13.448;2023-09-18T10:09:07;3.40;;;2.33;;
18740;SDS011;9499;52.472;13.448;2023-09-18T10:11:37;2.23;;;1.30;;
18740;SDS011;9499;52.472;13.448;2023-09-18T10:14:10;1.83;;;1.20;;
18740;SDS011;9499;52.472;13.448;2023-09-18T10:16:41;2.07;;;1.47;;
18740;SDS011;9499;52.472;13.448;2023-09-18T10:19:14;2.40;;;1.47;;
18740;SDS011;9499;52.472;13.448;2023-09-18T10:21:49;2.07;;;1.40;;
18740;SDS011;9499;52.472;13.448;2023-09-18T10:24:26;2.17;;;1.27;;
18740;SDS011;9499;52.472;13.448;2023-09-18T10:26:58;2.20;;;1.40;;
18740;SDS011;9499;52.472;13.448;2023-09-18T10:29:27;2.60;;;1.50;;
18740;SDS011;9499;52.472;13.448;2023-09-18T10:31:55;2.30;;;1.93;;
18740;SDS011;9499;52.472;13.448;2023-09-18T10:34:23;2.80;;;1.37;;
18740;SDS011;9499;52.472;13.448;2023-09-18T10:36:52;1.73;;;0.87;;
18740;SDS011;9499;52.472;13.448;2023-09-18T10:39:20;2.17;;;1.40;;
18740;SDS011;9499;52.472;13.448;2023-09-18T10:41:52;3.73;;;1.50;;
18740;SDS011;9499;52.472;13.448;2023-09-18T10:44:20;2.10;;;1.50;;
18740;SDS011;9499;52.472;13.448;2023-09-18T10:46:48;3.03;;;1.50;;
18740;SDS011;9499;52.472;13.448;2023-09-18T10:49:16;2.43;;;1.37;;
18740;SDS011;9499;52.472;13.448;2023-09-18T10:51:44;2.70;;;1.50;;
18740;SDS011;9499;52.472;13.448;2023-09-18T10:54:14;3.60;;;2.20;;
18740;SDS011;9499;52.472;13.448;2023-09-18T10:56:42;2.40;;;1.80;;
18740;SDS011;9499;52.472;13.448;2023-09-18T10:59:09;2.47;;;1.60;;
18740;SDS011;9499;52.472;13.448;2023-09-18T11:01:36;2.57;;;1.23;;
18740;SDS011;9499;52.472;13.448;2023-09-18T11:04:05;1.77;;;1.40;;
18740;SDS011;9499;52.472;13.448;2023-09-18T11:09:28;2.77;;;1.73;;
18740;SDS011;9499;52.472;13.448;2023-09-18T11:12:01;2.27;;;1.30;;
18740;SDS011;9499;52.472;13.448;2023-09-18T11:14:40;2.47;;;1.40;;
18740;SDS011;9499;52.472;13.448;2023-09-18T11:20:05;2.23;;;1.57;;
18740;SDS011;9499;52.472;13.448;2023-09-18T11:22:34;2.37;;;1.17;;
18740;SDS011;9499;52.472;13.448;2023-09-18T11:28:00;1.83;;;1.13;;
18740;SDS011;9499;52.472;13.448;2023-09-18T11:30:27;2.63;;;1.10;;
18740;SDS011;9499;52.472;13.448;2023-09-18T11:32:54;2.97;;;1.90;;
18740;SDS011;9499;52.472;13.448;2023-09-18T11:35:22;2.87;;;1.97;;
18740;SDS011;9499;52.472;13.448;2023-09-18T11:38:02;2.73;;;1.50;;
18740;SDS011;9499;52.472;13.448;2023-09-18T11:40:31;1.90;;;1.13;;
18740;SDS011;9499;52.472;13.448;2023-09-18T11:43:19;2.80;;;1.50;;
18740;SDS011;9499;52.472;13.448;2023-09-18T11:45:50;2.13;;;1.40;;
18740;SDS011;9499;52.472;13.448;2023-09-18T11:48:18;2.30;;;1.13;;
18740;SDS011;9499;52.472;13.448;2023-09-18T11:50:47;2.67;;;1.40;;
18740;SDS011;9499;52.472;13.448;2023-09-18T11:53:15;2.77;;;1.57;;
18740;SDS011;9499;52.472;13.448;2023-09-18T11:55:43;2.50;;;1.80;;
18740;SDS011;9499;52.472;13.448;2023-09-18T11:58:09;2.47;;;1.67;;
18740;SDS011;9499;52.472;13.448;2023-09-18T12:00:36;2.00;;;1.50;;
18740;SDS011;9499;52.472;13.448;2023-09-18T12:03:14;2.30;;;1.30;;
18740;SDS011;9499;52.472;13.448;2023-09-18T12:05:51;2.00;;;1.47;;
18740;SDS011;9499;52.472;13.448;2023-09-18T12:08:19;2.30;;;1.53;;
18740;SDS011;9499;52.472;13.448;2023-09-18T12:10:48;2.23;;;1.70;;
18740;SDS011;9499;52.472;13.448;2023-09-18T12:13:15;2.50;;;1.87;;
18740;SDS011;9499;52.472;13.448;2023-09-18T12:15:41;2.47;;;1.23;;
18740;SDS011;9499;52.472;13.448;2023-09-18T12:18:09;2.00;;;1.23;;
18740;SDS011;9499;52.472;13.448;2023-09-18T12:23:07;1.70;;;1.10;;
18740;SDS011;9499;52.472;13.448;2023-09-18T12:25:34;4.13;;;1.57;;
18740;SDS011;9499;52.472;13.448;2023-09-18T12:28:00;2.10;;;1.40;;
18740;SDS011;9499;52.472;13.448;2023-09-18T12:30:29;2.07;;;1.27;;
18740;SDS011;9499;52.472;13.448;2023-09-18T12:32:57;2.97;;;2.00;;
18740;SDS011;9499;52.472;13.448;2023-09-18T12:35:25;2.13;;;1.20;;
18740;SDS011;9499;52.472;13.448;2023-09-18T12:37:54;2.20;;;1.50;;
18740;SDS011;9499;52.472;13.448;2023-09-18T12:40:23;2.10;;;1.47;;
18740;SDS011;9499;52.472;13.448;2023-09-18T12:42:51;1.90;;;1.40;;
18740;SDS011;9499;52.472;13.448;2023-09-18T12:45:19;2.37;;;1.60;;
18740;SDS011;9499;52.472;13.448;2023-09-18T12:47:46;2.40;;;1.20;;
18740;SDS011;9499;52.472;13.448;2023-09-18T12:50:13;1.80;;;1.30;;
18740;SDS011;9499;52.472;13.448;2023-09-18T12:52:40;2.30;;;1.00;;
18740;SDS011;9499;52.472;13.448;2023-09-18T12:55:07;1.90;;;1.10;;
18740;SDS011;9499;52.472;13.448;2023-09-18T12:57:35;1.90;;;1.30;;
18740;SDS011;9499;52.472;13.448;2023-09-18T13:00:07;1.73;;;1.20;;
18740;SDS011;9499;52.472;13.448;2023-09-18T13:02:37;2.03;;;1.27;;
18740;SDS011;9499;52.472;13.448;2023-09-18T13:05:05;2.07;;;1.20;;
18740;SDS011;9499;52.472;13.448;2023-09-18T13:07:32;2.00;;;1.33;;
18740;SDS011;9499;52.472;13.448;2023-09-18T13:10:10;2.13;;;1.03;;
18740;SDS011;9499;52.472;13.448;2023-09-18T13:12:40;2.60;;;1.93;;
18740;SDS011;9499;52.472;13.448;2023-09-18T13:15:07;1.97;;;0.83;;
18740;SDS011;9499;52.472;13.448;2023-09-18T13:17:36;2.00;;;1.50;;
18740;SDS011;9499;52.472;13.448;2023-09-18T13:20:09;2.00;;;1.30;;
18740;SDS011;9499;52.472;13.448;2023-09-18T13:22:40;2.40;;;1.97;;
18740;SDS011;9499;52.472;13.448;2023-09-18T13:25:08;2.23;;;1.97;;
18740;SDS011;9499;52.472;13.448;2023-09-18T13:27:35;1.50;;;0.70;;
18740;SDS011;9499;52.472;13.448;2023-09-18T13:30:04;1.80;;;1.20;;
18740;SDS011;9499;52.472;13.448;2023-09-18T13:32:33;2.77;;;1.47;;
18740;SDS011;9499;52.472;13.448;2023-09-18T13:35:01;2.20;;;1.00;;
18740;SDS011;9499;52.472;13.448;2023-09-18T13:37:30;2.13;;;1.40;;
18740;SDS011;9499;52.472;13.448;2023-09-18T13:39:57;2.67;;;1.23;;
18740;SDS011;9499;52.472;13.448;2023-09-18T13:42:26;2.80;;;1.57;;
18740;SDS011;9499;52.472;13.448;2023-09-18T13:44:54;2.97;;;1.70;;
18740;SDS011;9499;52.472;13.448;2023-09-18T13:47:22;3.50;;;2.47;;
18740;SDS011;9499;52.472;13.448;2023-09-18T13:49:48;2.10;;;1.70;;
18740;SDS011;9499;52.472;13.448;2023-09-18T13:52:16;2.43;;;1.30;;
18740;SDS011;9499;52.472;13.448;2023-09-18T13:54:44;1.80;;;1.20;;
18740;SDS011;9499;52.472;13.448;2023-09-18T13:57:15;2.80;;;1.73;;
18740;SDS011;9499;52.472;13.448;2023-09-18T13:59:42;4.00;;;2.13;;
18740;SDS011;9499;52.472;13.448;2023-09-18T14:02:09;2.87;;;1.80;;
18740;SDS011;9499;52.472;13.448;2023-09-18T14:04:37;2.10;;;1.13;;
18740;SDS011;9499;52.472;13.448;2023-09-18T14:07:04;2.77;;;1.70;;
18740;SDS011;9499;52.472;13.448;2023-09-18T14:09:31;2.37;;;1.30;;
18740;SDS011;9499;52.472;13.448;2023-09-18T14:11:58;2.80;;;2.27;;
18740;SDS011;9499;52.472;13.448;2023-09-18T14:14:24;2.90;;;1.33;;
18740;SDS011;9499;52.472;13.448;2023-09-18T14:16:51;2.93;;;2.27;;
18740;SDS011;9499;52.472;13.448;2023-09-18T14:19:18;2.60;;;1.37;;
18740;SDS011;9499;52.472;13.448;2023-09-18T14:21:47;1.97;;;1.47;;
18740;SDS011;9499;52.472;13.448;2023-09-18T14:24:14;1.90;;;1.20;;
18740;SDS011;9499;52.472;13.448;2023-09-18T14:26:43;1.67;;;1.10;;
18740;SDS011;9499;52.472;13.448;2023-09-18T14:29:09;1.57;;;0.90;;
18740;SDS011;9499;52.472;13.448;2023-09-18T14:31:37;2.43;;;1.33;;
18740;SDS011;9499;52.472;13.448;2023-09-18T14:34:03;2.03;;;1.30;;
18740;SDS011;9499;52.472;13.448;2023-09-18T14:36:30;2.77;;;1.67;;
18740;SDS011;9499;52.472;13.448;2023-09-18T14:38:59;3.70;;;1.80;;
18740;SDS011;9499;52.472;13.448;2023-09-18T14:41:26;2.10;;;1.30;;
18740;SDS011;9499;52.472;13.448;2023-09-18T14:43:52;6.90;;;1.00;;
18740;SDS011;9499;52.472;13.448;2023-09-18T14:46:19;1.50;;;0.80;;
18740;SDS011;9499;52.472;13.448;2023-09-18T14:48:47;1.60;;;0.80;;
18740;SDS011;9499;52.472;13.448;2023-09-18T14:51:13;1.93;;;0.93;;
18740;SDS011;9499;52.472;13.448;2023-09-18T14:53:40;1.77;;;0.87;;
18740;SDS011;9499;52.472;13.448;2023-09-18T14:56:08;1.97;;;1.43;;
18740;SDS011;9499;52.472;13.448;2023-09-18T14:58:34;1.60;;;0.90;;
18740;SDS011;9499;52.472;13.448;2023-09-18T15:01:01;1.40;;;1.03;;
18740;SDS011;9499;52.472;13.448;2023-09-18T15:03:28;2.20;;;0.93;;